Olinghouse, Nevada
Current Conditions -  °F | °C
As of 2:55 PM on Thursday 20 Nov 2014 (Local Time) from KRNO Reporting Station
Overcast Overcast  
Wind Chill: 51°   Ceiling: 10000
Heat Index: 51°   Visibility: 10mi
Dew Point: 33°   Wind: 5mph
Humidity: 50%   Direction: 40°NE
Pressure: 29.96"   Gusts: NA
Location:  39.7287°N, 119.26°W
Report Text: KRNO 202255Z 04004KT 10SM SCT055 BKN100 OVC140 11/01 A2996 RMK AO2 SLP134 VIRGA ACSL DSNT NW MTN TOPS OBSCD DSNT SW SH DSNT SW T01060006
Loading
Personal Weather Stations






























Interactive Weather Map New forecast layout! Learn more

10-Day Weather Forecast

Advertisements
Track Severe Weather on mobile